Time;durP1;ratioP1;P1;durP2;ratioP2;P2;SDS_P1;SDS_P2;PMS_P1;PMS_P2;Temp;Humidity;BMP_temperature;BMP_pressure;BME280_temperature;BME280_humidity;BME280_pressure;Samples;Min_cycle;Max_cycle;Signal;HPM_P1;HPM_P2
2023/08/02 00:01:12;;;;;;;2.88;1.08;;;20.20;99.90;;;;;;5031554;28;20104;-39
2023/08/02 00:03:38;;;;;;;1.27;0.90;;;20.20;99.90;;;;;;5031785;28;20025;-43
2023/08/02 00:06:03;;;;;;;2.92;1.23;;;20.20;99.90;;;;;;5031915;28;20021;-39
2023/08/02 00:08:29;;;;;;;1.27;0.90;;;20.20;99.90;;;;;;5031583;28;20088;-42
2023/08/02 00:10:55;;;;;;;2.38;1.20;;;20.20;99.90;;;;;;5031349;28;20436;-42
2023/08/02 00:13:21;;;;;;;2.97;1.25;;;20.20;99.90;;;;;;5031472;28;20064;-41
2023/08/02 00:15:46;;;;;;;2.42;1.15;;;20.20;99.90;;;;;;5031420;28;20033;-41
2023/08/02 00:18:12;;;;;;;2.58;1.27;;;20.20;99.90;;;;;;5031323;28;20037;-39
2023/08/02 00:20:38;;;;;;;2.47;1.17;;;20.20;99.90;;;;;;5031223;28;20034;-40
2023/08/02 00:23:05;;;;;;;2.22;1.20;;;20.20;99.90;;;;;;5031448;28;20507;-39
2023/08/02 00:25:31;;;;;;;2.20;0.98;;;20.20;99.90;;;;;;5031419;28;20029;-43
2023/08/02 00:27:58;;;;;;;2.28;1.27;;;20.20;99.90;;;;;;5031651;28;20116;-41
2023/08/02 00:30:23;;;;;;;2.90;1.10;;;20.20;99.90;;;;;;5031008;28;20163;-41
2023/08/02 00:32:49;;;;;;;1.70;1.00;;;20.20;99.90;;;;;;5031268;28;20104;-39
2023/08/02 00:35:16;;;;;;;2.67;1.27;;;20.20;99.90;;;;;;5030446;28;20025;-39
2023/08/02 00:37:42;;;;;;;3.15;1.15;;;20.20;99.90;;;;;;5031279;28;20021;-40
2023/08/02 00:40:09;;;;;;;2.83;1.33;;;20.20;99.90;;;;;;5030926;28;20033;-40
2023/08/02 00:42:35;;;;;;;4.18;1.40;;;20.20;99.90;;;;;;5031117;28;20037;-41
2023/08/02 00:45:03;;;;;;;2.45;1.20;;;20.20;99.90;;;;;;5031104;28;20104;-41
2023/08/02 00:47:29;;;;;;;2.13;0.95;;;20.20;99.90;;;;;;5031110;28;20030;-41
2023/08/02 00:49:55;;;;;;;2.60;1.23;;;20.20;99.90;;;;;;5030921;28;20113;-39
2023/08/02 00:52:21;;;;;;;2.83;1.23;;;20.20;99.90;;;;;;5031516;28;20053;-41
2023/08/02 00:54:48;;;;;;;4.10;1.23;;;20.20;99.90;;;;;;5031108;28;20465;-40
2023/08/02 00:57:14;;;;;;;3.13;1.58;;;20.10;99.90;;;;;;5031069;28;20514;-40
2023/08/02 00:59:43;;;;;;;1.83;1.13;;;20.20;99.90;;;;;;5030677;28;20053;-42
2023/08/02 01:02:09;;;;;;;2.65;1.00;;;20.10;99.90;;;;;;5030998;28;20337;-42
2023/08/02 01:04:36;;;;;;;1.65;1.10;;;20.10;99.90;;;;;;5030979;28;20539;-40
2023/08/02 01:07:15;;;;;;;1.95;1.10;;;20.10;99.90;;;;;;5030977;28;20037;-41
2023/08/02 01:09:47;;;;;;;2.58;1.20;;;20.10;99.90;;;;;;5030633;28;20025;-41
2023/08/02 01:12:15;;;;;;;3.85;1.38;;;20.20;99.90;;;;;;5030804;28;20026;-40
2023/08/02 01:14:45;;;;;;;4.25;1.00;;;20.10;99.90;;;;;;5031025;28;20054;-41
2023/08/02 01:17:13;;;;;;;1.85;1.10;;;20.20;99.90;;;;;;5031116;28;20034;-41
2023/08/02 01:19:40;;;;;;;3.25;0.95;;;20.10;99.90;;;;;;5030507;28;20040;-40
2023/08/02 01:22:05;;;;;;;2.30;1.40;;;20.10;99.90;;;;;;5031242;28;20053;-41
2023/08/02 01:24:35;;;;;;;2.22;1.30;;;20.10;99.90;;;;;;5030693;28;20025;-39
2023/08/02 01:27:16;;;;;;;4.03;1.20;;;20.10;99.90;;;;;;5030787;28;20025;-38
2023/08/02 01:29:46;;;;;;;2.40;1.30;;;20.10;99.90;;;;;;5030536;28;20048;-41
2023/08/02 01:32:12;;;;;;;2.90;1.27;;;20.10;99.90;;;;;;5030768;28;20403;-40
2023/08/02 01:34:39;;;;;;;3.78;1.30;;;20.10;99.90;;;;;;5030720;28;20109;-41
2023/08/02 01:37:04;;;;;;;3.40;1.40;;;20.10;99.90;;;;;;5030557;28;20389;-38
2023/08/02 01:39:30;;;;;;;2.58;1.05;;;20.10;99.90;;;;;;5030611;28;20359;-40
2023/08/02 01:41:56;;;;;;;3.58;1.50;;;20.10;99.90;;;;;;5030582;28;20029;-39
2023/08/02 01:44:21;;;;;;;4.70;1.15;;;20.10;99.90;;;;;;5030600;28;20021;-40
2023/08/02 01:46:47;;;;;;;1.83;1.25;;;20.10;99.90;;;;;;5031647;28;20036;-41
2023/08/02 01:49:13;;;;;;;2.17;1.15;;;20.10;99.90;;;;;;5033940;28;20392;-41
2023/08/02 01:51:38;;;;;;;2.42;1.20;;;20.10;99.90;;;;;;5034054;28;20072;-40
2023/08/02 01:54:04;;;;;;;2.10;1.30;;;20.10;99.90;;;;;;5034077;28;20112;-39
2023/08/02 01:56:29;;;;;;;3.72;1.33;;;20.10;99.90;;;;;;5034064;28;20034;-40
2023/08/02 01:58:55;;;;;;;1.95;1.15;;;20.10;99.90;;;;;;5033846;28;20034;-39
2023/08/02 02:01:21;;;;;;;2.17;0.90;;;20.10;99.90;;;;;;5033950;28;20025;-40
2023/08/02 02:03:46;;;;;;;3.60;1.20;;;20.10;99.90;;;;;;5033957;28;20538;-40
2023/08/02 02:06:12;;;;;;;2.00;1.10;;;20.10;99.90;;;;;;5033904;28;20017;-41
2023/08/02 02:08:37;;;;;;;1.40;0.98;;;20.10;99.90;;;;;;5033720;28;20052;-41
2023/08/02 02:11:04;;;;;;;2.80;1.38;;;20.10;99.90;;;;;;5033638;28;20032;-43
2023/08/02 02:13:30;;;;;;;2.20;1.20;;;20.10;99.90;;;;;;5033746;28;20042;-41
2023/08/02 02:15:56;;;;;;;2.28;1.20;;;20.10;99.90;;;;;;5033764;28;20030;-39
2023/08/02 02:18:22;;;;;;;2.25;0.95;;;20.10;99.90;;;;;;5033465;28;20025;-39
2023/08/02 02:20:47;;;;;;;3.88;1.20;;;20.00;99.90;;;;;;5033378;28;20029;-39
2023/08/02 02:23:13;;;;;;;4.05;1.42;;;20.10;99.90;;;;;;5033488;28;20036;-42
2023/08/02 02:25:39;;;;;;;2.42;1.15;;;20.10;99.90;;;;;;5033497;28;20489;-42
2023/08/02 02:28:04;;;;;;;5.75;1.38;;;20.10;99.90;;;;;;5033451;28;20033;-39
2023/08/02 02:30:30;;;;;;;2.15;1.25;;;20.10;99.90;;;;;;5033293;28;20022;-39
2023/08/02 02:32:56;;;;;;;1.65;1.00;;;20.00;99.90;;;;;;5033342;28;20034;-39
2023/08/02 02:35:22;;;;;;;1.88;1.10;;;20.00;99.90;;;;;;5033354;28;20025;-40
2023/08/02 02:37:47;;;;;;;3.28;1.27;;;20.10;99.90;;;;;;5033152;28;20060;-40
2023/08/02 02:40:13;;;;;;;2.72;1.20;;;20.00;99.90;;;;;;5033089;28;20025;-40
2023/08/02 02:42:40;;;;;;;2.03;1.20;;;20.00;99.90;;;;;;5033188;28;20025;-40
2023/08/02 02:45:07;;;;;;;2.08;1.10;;;20.00;99.90;;;;;;5033218;28;20022;-42
2023/08/02 02:47:33;;;;;;;2.10;1.08;;;20.00;99.90;;;;;;5033215;28;20033;-41
2023/08/02 02:49:58;;;;;;;1.83;1.15;;;20.00;99.90;;;;;;5032739;28;20063;-40
2023/08/02 02:52:24;;;;;;;3.10;1.30;;;20.00;99.90;;;;;;5033049;28;20385;-41
2023/08/02 02:54:49;;;;;;;1.95;1.17;;;20.00;99.90;;;;;;5032963;28;20045;-39
2023/08/02 02:57:16;;;;;;;2.55;1.40;;;20.00;99.90;;;;;;5015193;28;20519;-42
2023/08/02 02:59:42;;;;;;;2.28;1.13;;;20.00;99.90;;;;;;5031867;28;20052;-39
2023/08/02 03:02:08;;;;;;;4.07;1.40;;;20.00;99.90;;;;;;5032777;28;20124;-40
2023/08/02 03:04:33;;;;;;;1.80;1.02;;;20.00;99.90;;;;;;5032750;28;20025;-41
2023/08/02 03:06:59;;;;;;;2.22;1.23;;;20.00;99.90;;;;;;5032746;28;20030;-40
2023/08/02 03:09:25;;;;;;;1.92;1.10;;;20.00;99.90;;;;;;5032449;28;20096;-41
2023/08/02 03:11:50;;;;;;;3.35;1.15;;;20.10;99.90;;;;;;5032849;28;20034;-40
2023/08/02 03:14:16;;;;;;;3.47;1.27;;;20.00;99.90;;;;;;5032747;28;20120;-40
2023/08/02 03:16:44;;;;;;;3.15;1.40;;;20.00;99.90;;;;;;5032638;28;20022;-40
2023/08/02 03:19:11;;;;;;;1.83;1.20;;;20.00;99.90;;;;;;5032140;28;20451;-41
2023/08/02 03:21:37;;;;;;;1.75;1.35;;;20.00;99.90;;;;;;5014711;28;20034;-40
2023/08/02 03:24:03;;;;;;;3.35;1.10;;;20.00;99.90;;;;;;5032495;28;20139;-39
2023/08/02 03:26:29;;;;;;;2.50;1.15;;;20.00;99.90;;;;;;5032721;28;20531;-40
2023/08/02 03:28:54;;;;;;;2.05;1.25;;;20.00;99.90;;;;;;5032189;28;20515;-39
2023/08/02 03:31:20;;;;;;;2.05;0.95;;;20.00;99.90;;;;;;5032334;28;20331;-40
2023/08/02 03:33:45;;;;;;;2.30;1.10;;;20.00;99.90;;;;;;5032173;28;20030;-40
2023/08/02 03:36:11;;;;;;;1.83;1.05;;;20.00;99.90;;;;;;5014492;28;20032;-40
2023/08/02 03:38:37;;;;;;;1.90;1.20;;;20.00;99.90;;;;;;5031997;28;20094;-40
2023/08/02 03:41:02;;;;;;;2.20;1.10;;;20.00;99.90;;;;;;5032001;28;20241;-40
2023/08/02 03:43:28;;;;;;;1.48;1.00;;;20.00;99.90;;;;;;5031999;28;20481;-41
2023/08/02 03:45:54;;;;;;;2.20;1.50;;;20.00;99.90;;;;;;5032077;28;20025;-41
2023/08/02 03:48:19;;;;;;;1.88;1.00;;;20.00;99.90;;;;;;5032286;28;20021;-41
2023/08/02 03:50:45;;;;;;;2.72;1.40;;;20.00;99.90;;;;;;5031802;28;20021;-41
2023/08/02 03:53:11;;;;;;;2.63;1.27;;;20.00;99.90;;;;;;5031862;28;20431;-40
2023/08/02 03:55:37;;;;;;;2.47;1.27;;;20.00;99.90;;;;;;5031884;28;20446;-41
2023/08/02 03:58:02;;;;;;;3.22;1.60;;;20.00;99.90;;;;;;5031751;28;20052;-39
2023/08/02 04:00:28;;;;;;;2.33;1.30;;;19.90;99.90;;;;;;5031560;28;20056;-42
2023/08/02 04:02:55;;;;;;;4.07;1.50;;;20.00;99.90;;;;;;5031588;28;20519;-40
2023/08/02 04:05:21;;;;;;;2.22;1.17;;;20.00;99.90;;;;;;5031823;28;20033;-41
2023/08/02 04:07:46;;;;;;;2.55;1.38;;;19.90;99.90;;;;;;5032203;28;20021;-40
2023/08/02 04:10:12;;;;;;;1.92;1.23;;;19.90;99.90;;;;;;5031735;28;20025;-38
2023/08/02 04:12:37;;;;;;;2.15;1.08;;;19.90;99.90;;;;;;5031652;28;20033;-40
2023/08/02 04:15:03;;;;;;;2.65;1.30;;;19.90;99.90;;;;;;5031581;28;20033;-40
2023/08/02 04:17:29;;;;;;;3.53;1.13;;;19.90;99.90;;;;;;5031506;28;20029;-39
2023/08/02 04:19:55;;;;;;;2.63;1.42;;;19.90;99.90;;;;;;5031222;28;20029;-39
2023/08/02 04:22:21;;;;;;;2.83;1.33;;;19.90;99.90;;;;;;5031310;28;20029;-42
2023/08/02 04:24:49;;;;;;;1.58;1.10;;;19.90;99.90;;;;;;5031645;28;20028;-40
2023/08/02 04:27:15;;;;;;;2.15;1.33;;;19.90;99.90;;;;;;5031366;28;20324;-40
2023/08/02 04:29:40;;;;;;;2.17;1.20;;;19.90;99.90;;;;;;5031087;28;20421;-40
2023/08/02 04:32:07;;;;;;;3.20;1.27;;;19.90;99.90;;;;;;5031171;28;20394;-40
2023/08/02 04:34:33;;;;;;;4.65;1.40;;;19.90;99.90;;;;;;5031328;28;20075;-40
2023/08/02 04:36:58;;;;;;;2.38;1.40;;;19.90;99.90;;;;;;5031256;28;20097;-40
2023/08/02 04:39:24;;;;;;;3.67;1.42;;;19.90;99.90;;;;;;5030962;28;20492;-41
2023/08/02 04:42:00;;;;;;;3.53;1.20;;;19.90;99.90;;;;;;5031188;28;20384;-41
2023/08/02 04:44:26;;;;;;;5.95;1.60;;;19.90;99.90;;;;;;5031089;28;20028;-41
2023/08/02 04:46:51;;;;;;;4.70;1.77;;;19.70;99.90;;;;;;5031000;28;20104;-41
2023/08/02 04:49:17;;;;;;;4.00;1.83;;;19.40;99.90;;;;;;5030867;28;20030;-41
2023/08/02 04:51:43;;;;;;;3.13;1.70;;;19.30;99.90;;;;;;5031294;28;20025;-42
2023/08/02 04:54:08;;;;;;;3.22;1.58;;;19.30;99.90;;;;;;5031123;28;20022;-40
2023/08/02 04:56:34;;;;;;;4.85;1.95;;;19.30;99.90;;;;;;5031078;28;20393;-43
2023/08/02 04:58:59;;;;;;;3.53;1.60;;;19.40;99.90;;;;;;5030842;28;20022;-38
2023/08/02 05:01:25;;;;;;;2.95;1.75;;;19.40;99.90;;;;;;5030930;28;20033;-39
2023/08/02 05:03:51;;;;;;;2.65;1.55;;;19.50;99.90;;;;;;5030967;28;20036;-42
2023/08/02 05:06:16;;;;;;;2.55;1.63;;;19.50;99.90;;;;;;5030969;28;20017;-42
2023/08/02 05:08:42;;;;;;;4.28;2.00;;;19.50;99.90;;;;;;5030875;28;20028;-42
2023/08/02 05:11:08;;;;;;;3.28;1.73;;;19.60;99.90;;;;;;5030879;28;20052;-40
2023/08/02 05:13:34;;;;;;;2.83;1.73;;;19.60;99.90;;;;;;5030957;28;20115;-41
2023/08/02 05:16:00;;;;;;;3.95;1.83;;;19.60;99.90;;;;;;5030885;28;20029;-38
2023/08/02 05:18:26;;;;;;;2.72;1.42;;;19.70;99.90;;;;;;5030892;28;20032;-40
2023/08/02 05:20:53;;;;;;;3.70;1.88;;;19.70;99.90;;;;;;5030644;28;20025;-41
2023/08/02 05:23:18;;;;;;;3.08;1.60;;;19.70;99.90;;;;;;5034221;28;20025;-41
2023/08/02 05:25:44;;;;;;;3.53;1.60;;;19.70;99.90;;;;;;5034760;28;20036;-39
2023/08/02 05:28:10;;;;;;;2.10;1.35;;;19.70;99.90;;;;;;5035087;28;20021;-42
2023/08/02 05:30:37;;;;;;;3.22;1.70;;;19.70;99.90;;;;;;5034452;28;20021;-41
2023/08/02 05:33:03;;;;;;;3.60;2.20;;;19.70;99.90;;;;;;5034634;28;20032;-44
2023/08/02 05:35:30;;;;;;;4.75;1.63;;;19.70;99.90;;;;;;5034505;28;20563;-42
2023/08/02 05:37:56;;;;;;;6.63;2.00;;;19.70;99.90;;;;;;5034461;28;20040;-42
2023/08/02 05:40:22;;;;;;;2.25;1.38;;;19.70;99.90;;;;;;5034307;28;20052;-41
2023/08/02 05:42:48;;;;;;;3.25;1.63;;;19.70;99.90;;;;;;5016558;28;20026;-40
2023/08/02 05:45:15;;;;;;;2.03;1.40;;;19.80;99.90;;;;;;5016548;28;20029;-41
2023/08/02 05:47:41;;;;;;;3.95;2.00;;;19.70;99.90;;;;;;5034304;28;20109;-40
2023/08/02 05:50:07;;;;;;;3.00;1.58;;;19.80;99.90;;;;;;5033962;28;20093;-41
2023/08/02 05:52:32;;;;;;;4.28;1.75;;;19.80;99.90;;;;;;5034177;28;20492;-42
2023/08/02 05:54:58;;;;;;;3.17;1.52;;;19.70;99.90;;;;;;5034250;28;20112;-41
2023/08/02 05:57:24;;;;;;;3.10;1.38;;;19.80;99.90;;;;;;5034075;28;20034;-39
2023/08/02 05:59:50;;;;;;;3.72;1.73;;;19.70;99.90;;;;;;5033771;28;20064;-41
2023/08/02 06:02:15;;;;;;;2.25;1.55;;;19.80;99.90;;;;;;5033966;28;20037;-42
2023/08/02 06:04:45;;;;;;;3.25;1.88;;;19.80;99.90;;;;;;5033896;28;20029;-42
2023/08/02 06:07:11;;;;;;;2.70;1.50;;;19.80;99.90;;;;;;5033978;28;20135;-42
2023/08/02 06:09:36;;;;;;;3.58;2.25;;;19.80;99.90;;;;;;5034005;28;20146;-41
2023/08/02 06:12:02;;;;;;;2.72;1.67;;;19.80;99.90;;;;;;5033732;28;20485;-42
2023/08/02 06:14:28;;;;;;;3.40;1.67;;;19.80;99.90;;;;;;5034080;28;20054;-42
2023/08/02 06:16:54;;;;;;;2.15;1.38;;;19.80;99.90;;;;;;5033775;28;20021;-41
2023/08/02 06:19:19;;;;;;;3.80;1.60;;;19.80;99.90;;;;;;5033308;28;20033;-41
2023/08/02 06:21:45;;;;;;;3.30;1.70;;;19.80;99.90;;;;;;5033777;28;20030;-41
2023/08/02 06:24:10;;;;;;;2.83;1.60;;;19.80;99.90;;;;;;5033562;28;20026;-44
2023/08/02 06:26:37;;;;;;;2.85;1.77;;;19.80;99.90;;;;;;5033643;28;20108;-42
2023/08/02 06:29:02;;;;;;;4.75;1.63;;;19.80;99.90;;;;;;5033202;28;20021;-41
2023/08/02 06:31:28;;;;;;;4.30;2.20;;;19.80;99.90;;;;;;5033428;28;20025;-42
2023/08/02 06:33:54;;;;;;;3.55;2.13;;;19.80;99.90;;;;;;5032017;28;20028;-43
2023/08/02 06:36:19;;;;;;;4.38;2.70;;;19.60;99.90;;;;;;5033359;28;20021;-45
2023/08/02 06:38:46;;;;;;;4.95;2.40;;;19.30;99.90;;;;;;5033131;28;20116;-42
2023/08/02 06:41:12;;;;;;;4.72;2.75;;;19.20;99.90;;;;;;5033115;28;20029;-40
2023/08/02 06:43:37;;;;;;;5.13;2.83;;;19.20;99.90;;;;;;5033180;28;20033;-41
2023/08/02 06:46:03;;;;;;;4.88;2.72;;;19.20;99.90;;;;;;5033316;28;20079;-40
2023/08/02 06:48:28;;;;;;;4.55;2.30;;;19.10;99.90;;;;;;5033069;28;20021;-42
2023/08/02 06:50:54;;;;;;;3.75;2.40;;;19.10;99.90;;;;;;5033023;28;20746;-41
2023/08/02 06:53:20;;;;;;;4.80;2.50;;;19.10;99.90;;;;;;5033096;28;20108;-41
2023/08/02 06:55:46;;;;;;;3.47;2.50;;;19.20;99.90;;;;;;5032993;28;20025;-43
2023/08/02 06:58:12;;;;;;;6.85;2.50;;;19.20;99.90;;;;;;5033097;28;20033;-41
2023/08/02 07:00:38;;;;;;;4.40;2.70;;;19.20;99.90;;;;;;5032714;28;20560;-42
2023/08/02 07:03:05;;;;;;;4.47;2.90;;;19.20;99.90;;;;;;5032807;28;20030;-41
2023/08/02 07:05:31;;;;;;;4.93;2.70;;;19.20;99.90;;;;;;5032880;28;20053;-41
2023/08/02 07:07:57;;;;;;;5.75;2.60;;;19.20;99.90;;;;;;5032712;28;20049;-39
2023/08/02 07:10:24;;;;;;;4.30;2.67;;;19.20;99.90;;;;;;5032483;28;20071;-41
2023/08/02 07:12:50;;;;;;;3.75;2.80;;;19.20;99.90;;;;;;5032638;28;20041;-42
2023/08/02 07:15:17;;;;;;;3.95;2.33;;;19.30;99.90;;;;;;5032685;28;20022;-42
2023/08/02 07:17:44;;;;;;;5.05;2.75;;;19.20;99.90;;;;;;5032556;28;20037;-41
2023/08/02 07:20:11;;;;;;;4.25;2.80;;;19.30;99.90;;;;;;5032405;28;20037;-41
2023/08/02 07:22:37;;;;;;;3.95;2.92;;;19.30;99.90;;;;;;5032933;28;20034;-41
2023/08/02 07:25:03;;;;;;;4.63;2.70;;;19.30;99.90;;;;;;5032389;28;20033;-40
2023/08/02 07:27:29;;;;;;;4.07;2.72;;;19.30;99.90;;;;;;5032618;28;20026;-42
2023/08/02 07:29:56;;;;;;;4.18;2.40;;;19.30;99.90;;;;;;5014610;28;20105;-41
2023/08/02 07:32:22;;;;;;;3.95;2.50;;;19.30;99.90;;;;;;5032337;28;20403;-41
2023/08/02 07:34:48;;;;;;;5.45;2.72;;;19.40;99.90;;;;;;5032219;28;20155;-39
2023/08/02 07:37:14;;;;;;;3.60;2.40;;;19.40;99.90;;;;;;5032283;28;20100;-45
2023/08/02 07:39:40;;;;;;;3.58;2.47;;;19.40;99.90;;;;;;5031797;28;20595;-41
2023/08/02 07:42:07;;;;;;;5.15;2.80;;;19.40;99.90;;;;;;5032227;28;20033;-42
2023/08/02 07:44:33;;;;;;;7.13;2.80;;;19.40;99.90;;;;;;5031697;28;20029;-41
2023/08/02 07:46:59;;;;;;;3.55;2.42;;;19.40;99.90;;;;;;5014311;28;20123;-42
2023/08/02 07:49:24;;;;;;;5.32;2.55;;;19.40;99.90;;;;;;5031738;28;20484;-41
2023/08/02 07:51:50;;;;;;;3.58;2.60;;;19.40;99.90;;;;;;5032009;28;20021;-41
2023/08/02 07:54:16;;;;;;;4.00;2.65;;;19.40;99.90;;;;;;5031828;28;20025;-41
2023/08/02 07:56:41;;;;;;;4.13;2.88;;;19.40;99.90;;;;;;5031963;28;20397;-44
2023/08/02 07:59:07;;;;;;;4.60;2.88;;;19.40;99.90;;;;;;5031734;28;20029;-42
2023/08/02 08:01:33;;;;;;;4.30;2.60;;;19.40;99.90;;;;;;5031830;28;20080;-41
2023/08/02 08:03:58;;;;;;;3.50;2.60;;;19.40;99.90;;;;;;5031716;28;20392;-41
2023/08/02 08:06:25;;;;;;;3.88;2.60;;;19.40;99.90;;;;;;5031713;28;20037;-42
2023/08/02 08:08:51;;;;;;;3.47;2.70;;;19.40;99.90;;;;;;5031359;28;20049;-41
2023/08/02 08:11:16;;;;;;;4.63;2.85;;;19.40;99.90;;;;;;5031609;28;20021;-41
2023/08/02 08:13:42;;;;;;;3.95;3.00;;;19.40;99.90;;;;;;5031565;28;20035;-41
2023/08/02 08:16:08;;;;;;;4.65;2.80;;;19.40;99.90;;;;;;5031613;28;20291;-42
2023/08/02 08:18:34;;;;;;;4.15;2.75;;;19.40;99.90;;;;;;5031275;28;20037;-41
2023/08/02 08:21:04;;;;;;;4.97;2.75;;;19.50;99.90;;;;;;5031299;28;20021;-40
2023/08/02 08:23:30;;;;;;;3.08;2.40;;;19.50;99.90;;;;;;5031293;28;20029;-42
2023/08/02 08:25:56;;;;;;;3.55;2.80;;;19.50;99.90;;;;;;5031420;28;20018;-40
2023/08/02 08:28:22;;;;;;;4.57;2.80;;;19.50;99.90;;;;;;5031313;28;20049;-40
2023/08/02 08:30:48;;;;;;;4.05;2.72;;;19.50;99.90;;;;;;5031071;28;20128;-41
2023/08/02 08:33:14;;;;;;;3.63;2.72;;;19.50;99.90;;;;;;5031345;28;20037;-41
2023/08/02 08:35:39;;;;;;;3.90;2.58;;;19.50;99.90;;;;;;5031315;28;20028;-43
2023/08/02 08:38:05;;;;;;;3.72;2.60;;;19.50;99.90;;;;;;5031087;28;20026;-42
2023/08/02 08:40:32;;;;;;;3.75;2.60;;;19.50;99.90;;;;;;5031040;28;20029;-41
2023/08/02 08:42:58;;;;;;;3.75;2.97;;;19.50;99.90;;;;;;5031160;28;20025;-42
2023/08/02 08:45:25;;;;;;;3.20;2.75;;;19.50;99.90;;;;;;5031227;28;20474;-41
2023/08/02 08:47:51;;;;;;;4.28;2.95;;;19.50;99.90;;;;;;5031035;28;20071;-40
2023/08/02 08:50:19;;;;;;;3.13;2.50;;;19.50;99.90;;;;;;5013169;28;20080;-42
2023/08/02 08:52:48;;;;;;;3.80;3.10;;;19.50;99.90;;;;;;5031088;28;20041;-42
2023/08/02 08:55:15;;;;;;;6.72;3.00;;;19.50;99.90;;;;;;5031152;28;20427;-42
2023/08/02 08:57:42;;;;;;;4.07;3.08;;;19.50;99.90;;;;;;5015928;28;20108;-42
2023/08/02 09:00:09;;;;;;;2.97;2.60;;;19.50;99.90;;;;;;5034989;28;20032;-43
2023/08/02 09:02:39;;;;;;;3.20;2.75;;;19.50;99.90;;;;;;5035108;28;20494;-41
2023/08/02 09:05:04;;;;;;;4.20;3.08;;;19.50;99.90;;;;;;5035003;28;20018;-42
2023/08/02 09:07:31;;;;;;;4.03;2.63;;;19.50;99.90;;;;;;5035074;28;20033;-39
2023/08/02 09:09:57;;;;;;;3.83;3.00;;;19.50;99.90;;;;;;5034717;28;20052;-43
2023/08/02 09:12:26;;;;;;;3.38;3.08;;;19.50;99.90;;;;;;5034976;28;20061;-41
2023/08/02 09:15:04;;;;;;;4.55;2.75;;;19.50;99.90;;;;;;5034962;28;20025;-42
2023/08/02 09:17:49;;;;;;;3.65;2.70;;;19.50;99.90;;;;;;5034846;28;20109;-41
2023/08/02 09:20:14;;;;;;;;;;;19.50;99.90;;;;;;5035099;28;20083;-41
2023/08/02 09:22:40;;;;;;;3.08;2.40;;;19.50;99.90;;;;;;5034721;28;19909;-41
2023/08/02 09:25:11;;;;;;;4.03;2.60;;;19.60;99.90;;;;;;5034716;28;20018;-41
2023/08/02 09:27:37;;;;;;;3.13;2.30;;;19.50;99.90;;;;;;5034733;28;20073;-41
2023/08/02 09:30:03;;;;;;;3.33;2.60;;;19.50;99.90;;;;;;5034144;28;20030;-41
2023/08/02 09:32:29;;;;;;;4.18;2.75;;;19.60;99.90;;;;;;5034636;28;20092;-41
2023/08/02 09:34:58;;;;;;;3.95;2.65;;;19.50;99.90;;;;;;5034552;28;20397;-42
2023/08/02 09:37:34;;;;;;;6.55;2.60;;;19.60;99.90;;;;;;5034503;28;20026;-41
2023/08/02 09:40:00;;;;;;;3.97;2.88;;;19.50;99.90;;;;;;5034199;28;20469;-40
2023/08/02 09:42:27;;;;;;;2.95;2.50;;;19.60;99.90;;;;;;5034239;28;20025;-41
2023/08/02 09:44:57;;;;;;;3.03;2.58;;;19.50;99.90;;;;;;5034207;28;20025;-42
2023/08/02 09:47:26;;;;;;;3.17;2.30;;;19.60;99.90;;;;;;5034371;28;20075;-41
2023/08/02 09:50:09;;;;;;;2.80;2.50;;;19.60;99.90;;;;;;5033982;28;20032;-40
2023/08/02 09:52:39;;;;;;;3.30;2.70;;;19.60;99.90;;;;;;5034256;28;20026;-41
2023/08/02 09:55:06;;;;;;;3.80;2.72;;;19.60;99.90;;;;;;5034097;28;20026;-43
2023/08/02 09:57:33;;;;;;;3.53;2.85;;;19.60;99.90;;;;;;5034687;28;20030;-42
2023/08/02 10:00:08;;;;;;;3.25;2.60;;;19.60;99.90;;;;;;5033754;28;20148;-43
2023/08/02 10:02:37;;;;;;;3.42;2.67;;;19.60;99.90;;;;;;5033928;28;20396;-41
2023/08/02 10:05:04;;;;;;;3.40;2.60;;;19.60;99.90;;;;;;5034029;28;20021;-44
2023/08/02 10:07:38;;;;;;;3.50;2.67;;;19.60;99.90;;;;;;5033573;28;20030;-42
2023/08/02 10:10:11;;;;;;;;;;;19.60;99.90;;;;;;5034364;28;20021;-39
2023/08/02 10:12:39;;;;;;;3.90;2.47;;;19.60;99.90;;;;;;5033981;28;19909;-39
2023/08/02 10:15:05;;;;;;;3.22;2.40;;;19.60;99.90;;;;;;5033805;28;20033;-41
2023/08/02 10:17:35;;;;;;;3.25;2.53;;;19.60;99.90;;;;;;5034208;28;20029;-40
2023/08/02 10:20:04;;;;;;;2.88;2.47;;;19.60;99.90;;;;;;5033296;28;20448;-41
2023/08/02 10:22:30;;;;;;;2.70;2.33;;;19.60;99.90;;;;;;5033759;28;20473;-41
2023/08/02 10:24:56;;;;;;;3.00;2.70;;;19.60;99.90;;;;;;5033605;28;20030;-42
2023/08/02 10:27:23;;;;;;;4.07;2.90;;;19.60;99.90;;;;;;5016080;28;20555;-42
2023/08/02 10:29:50;;;;;;;3.53;2.72;;;19.60;99.90;;;;;;5033248;28;20087;-41
2023/08/02 10:32:18;;;;;;;4.50;2.95;;;19.60;99.90;;;;;;5033528;28;20034;-42
2023/08/02 10:34:46;;;;;;;4.43;3.03;;;19.60;99.90;;;;;;5033350;28;20021;-43
2023/08/02 10:37:12;;;;;;;3.42;2.63;;;19.60;99.90;;;;;;5033449;28;20389;-43
2023/08/02 10:39:47;;;;;;;3.35;2.83;;;19.60;99.90;;;;;;5033049;28;20024;-42
2023/08/02 10:42:18;;;;;;;3.92;3.25;;;19.60;99.90;;;;;;5033229;28;20109;-43
2023/08/02 10:44:56;;;;;;;3.78;2.97;;;19.60;99.90;;;;;;5033160;28;20047;-41
2023/08/02 10:47:32;;;;;;;4.03;2.80;;;19.60;99.90;;;;;;5033172;28;20096;-41
2023/08/02 10:49:59;;;;;;;3.13;2.80;;;19.60;99.90;;;;;;5032915;28;20025;-42
2023/08/02 10:52:38;;;;;;;3.25;2.60;;;19.60;99.90;;;;;;5015353;28;20030;-42
2023/08/02 10:55:07;;;;;;;3.83;2.92;;;19.60;99.90;;;;;;5033095;28;20104;-40
2023/08/02 10:57:34;;;;;;;3.38;2.70;;;19.60;99.90;;;;;;5032928;28;20021;-42
2023/08/02 10:59:59;;;;;;;3.28;2.58;;;19.60;99.90;;;;;;5032696;28;20444;-41
2023/08/02 11:02:25;;;;;;;4.45;2.60;;;19.60;99.90;;;;;;5032891;28;20520;-41
2023/08/02 11:04:52;;;;;;;3.38;2.83;;;19.60;99.90;;;;;;5032857;28;20028;-42
2023/08/02 11:07:21;;;;;;;3.50;2.65;;;19.60;99.90;;;;;;5015058;28;20500;-41
2023/08/02 11:09:53;;;;;;;4.43;2.97;;;19.60;99.90;;;;;;5032561;28;20048;-40
2023/08/02 11:12:20;;;;;;;2.83;2.33;;;19.60;99.90;;;;;;5033199;28;20021;-41
2023/08/02 11:14:50;;;;;;;3.47;2.53;;;19.60;99.90;;;;;;5032666;28;20484;-42
2023/08/02 11:17:20;;;;;;;3.78;3.05;;;19.70;99.90;;;;;;5032667;28;20033;-41
2023/08/02 11:19:48;;;;;;;3.75;2.80;;;19.70;99.90;;;;;;5031907;28;20033;-41
2023/08/02 11:22:14;;;;;;;4.10;3.00;;;19.70;99.90;;;;;;5032567;28;20021;-40
2023/08/02 11:24:50;;;;;;;3.95;2.90;;;19.60;99.90;;;;;;5032487;28;20044;-43
2023/08/02 11:27:23;;;;;;;3.85;3.13;;;19.70;99.90;;;;;;5032706;28;20022;-40
2023/08/02 11:30:07;;;;;;;4.18;3.03;;;19.70;99.90;;;;;;5032104;28;20033;-43
2023/08/02 11:32:33;;;;;;;4.95;2.80;;;19.70;99.90;;;;;;5032513;28;20053;-41
2023/08/02 11:35:00;;;;;;;3.78;3.08;;;19.70;99.90;;;;;;5032292;28;20021;-40
2023/08/02 11:37:26;;;;;;;3.50;2.88;;;19.70;99.90;;;;;;5032553;28;20448;-41
2023/08/02 11:39:57;;;;;;;3.15;2.85;;;19.70;99.90;;;;;;5031996;28;20068;-41
2023/08/02 11:42:24;;;;;;;4.32;3.00;;;19.70;99.90;;;;;;5032103;28;20079;-42
2023/08/02 11:44:50;;;;;;;4.15;3.00;;;19.70;99.90;;;;;;5032112;28;20025;-44
2023/08/02 11:47:15;;;;;;;4.13;3.10;;;19.70;99.90;;;;;;5032068;28;20028;-43
2023/08/02 11:49:59;;;;;;;3.75;2.92;;;19.70;99.90;;;;;;5013920;28;20026;-41
2023/08/02 11:52:27;;;;;;;4.07;3.08;;;19.70;99.90;;;;;;5032120;28;20052;-41
2023/08/02 11:54:53;;;;;;;10.00;3.17;;;19.70;99.90;;;;;;5032097;28;20541;-41
2023/08/02 11:57:21;;;;;;;4.78;3.10;;;19.70;99.90;;;;;;5031847;28;20509;-42
2023/08/02 11:59:47;;;;;;;6.80;3.17;;;19.80;99.90;;;;;;5031571;28;20049;-40
2023/08/02 12:02:35;;;;;;;4.78;3.15;;;19.90;99.90;;;;;;5031829;28;20544;-41
2023/08/02 12:05:05;;;;;;;3.95;3.00;;;19.90;99.90;;;;;;5031854;28;20089;-39
2023/08/02 12:07:33;;;;;;;5.75;3.40;;;20.00;99.90;;;;;;5031889;28;20029;-41
2023/08/02 12:10:01;;;;;;;4.80;3.00;;;20.00;99.90;;;;;;5013691;28;20025;-41
2023/08/02 12:12:35;;;;;;;7.93;3.03;;;20.10;99.90;;;;;;5031512;28;20018;-39
2023/08/02 12:15:14;;;;;;;4.72;3.00;;;20.10;99.90;;;;;;5031846;28;20029;-41
2023/08/02 12:17:40;;;;;;;6.93;3.50;;;20.10;99.90;;;;;;5031420;28;20027;-41
2023/08/02 12:20:07;;;;;;;3.55;3.08;;;20.10;99.90;;;;;;5031402;28;20488;-43
2023/08/02 12:22:48;;;;;;;6.20;3.35;;;20.20;99.90;;;;;;5031417;28;20021;-41
2023/08/02 12:25:13;;;;;;;6.10;3.33;;;20.20;99.90;;;;;;5031400;28;20492;-41
2023/08/02 12:27:39;;;;;;;5.55;3.20;;;20.20;99.90;;;;;;5031391;28;20037;-41
2023/08/02 12:30:15;;;;;;;3.65;2.90;;;20.20;99.90;;;;;;5031173;28;20026;-43
2023/08/02 12:32:41;;;;;;;3.95;2.97;;;20.20;99.90;;;;;;5031381;28;20029;-41
2023/08/02 12:35:09;;;;;;;4.30;3.17;;;20.30;99.90;;;;;;5031405;28;20069;-43
2023/08/02 12:37:35;;;;;;;5.05;3.20;;;20.20;99.90;;;;;;5031785;28;20037;-43
2023/08/02 12:40:02;;;;;;;5.38;3.28;;;20.20;99.90;;;;;;5031174;28;20300;-41
2023/08/02 12:42:27;;;;;;;4.18;2.88;;;20.20;99.90;;;;;;5031181;28;20026;-41
2023/08/02 12:44:53;;;;;;;7.40;3.33;;;20.20;99.90;;;;;;5031197;28;20384;-44
2023/08/02 12:47:19;;;;;;;5.57;3.15;;;20.20;99.90;;;;;;5013538;28;20164;-40